OIKK

Ayatollah Hashemi Rafsanjani International Airport

Airport
ICAO code
OIKK
IATA Code
KER
Summary
ICAO Region
MID
ICAO Territory
Location

Kerman, Kerman Province

Serving
Kerman
Elevation
5741 ft
Coordinates
30° 15' 32" N , 56° 57' 42" E
KCC
Metar
Observation
OIKK 070300Z 19004KT 7000 SCT035 BKN090 06/06 Q1023 A3022
Station
Kerman
Date/Time
2022-12-07 03:00:00
Wind direction
190°
Wind speed
04 kts
Lowest cloud amount
scattered clouds
Temperature
6°C
Dew point
6°C
Humidity
100%
QNH
1023 hPa
Weather condition
n/a

Also known as Kerman International Airport. The airport is 10km west of the city of Kerman, Iran.

Climatology

Cold semi-arid climate (Köppen climate classification Bsh).

Runways

Designator Length Width Surface Rops
5/23 2029 45 ASP Yes/Yes
16/34 3847 45 ASP Yes/Yes

Airport map

Aerial View

SKYbrary Partners:

Safety knowledge contributed by: